Time,TemperatureF,DewpointF,PressureIn,WindDirection,WindDirectionDegrees,WindSpeedMPH,WindSpeedGustMPH,Humidity,HourlyPrecipIn,Conditions,Clouds,dailyrainin,SoftwareType,DateUTC
2013-01-22 00:00:00,20.2,17.5,29.81,SE,129,0.0,2.0,89,0.00,,,0.00,VWS V14.01,2013-01-22 05:00:00,
2013-01-22 00:03:00,20.2,17.5,29.81,SE,130,0.0,2.0,89,0.00,,,0.00,VWS V14.01,2013-01-22 05:03:00,
2013-01-22 00:08:00,20.2,17.5,29.80,SE,129,0.0,0.0,89,0.00,,,0.00,VWS V14.01,2013-01-22 05:08:00,
2013-01-22 00:13:00,20.2,17.5,29.80,SE,129,1.0,1.0,89,0.00,,,0.00,VWS V14.01,2013-01-22 05:13:00,
2013-01-22 00:18:00,20.1,17.4,29.78,SE,129,0.0,1.0,89,0.00,,,0.00,VWS V14.01,2013-01-22 05:18:00,
2013-01-22 00:23:00,20.0,17.3,29.78,SE,130,0.0,1.0,89,0.00,,,0.00,VWS V14.01,2013-01-22 05:23:00,
2013-01-22 00:28:00,20.0,17.3,29.79,SE,129,0.0,1.0,89,0.00,,,0.00,VWS V14.01,2013-01-22 05:28:00,
2013-01-22 00:33:00,19.9,17.2,29.79,SE,129,0.0,1.0,89,0.00,,,0.00,VWS V14.01,2013-01-22 05:33:00,
2013-01-22 00:38:00,19.9,17.2,29.79,SE,129,0.0,0.0,89,0.00,,,0.00,VWS V14.01,2013-01-22 05:38:00,
2013-01-22 00:43:00,19.8,16.8,29.79,SE,129,0.0,0.0,88,0.00,,,0.00,VWS V14.01,2013-01-22 05:43:00,
2013-01-22 00:48:00,19.7,16.7,29.78,SE,129,0.0,0.0,88,0.00,,,0.00,VWS V14.01,2013-01-22 05:48:00,
2013-01-22 00:53:00,19.5,16.5,29.78,SE,130,0.0,0.0,88,0.00,,,0.00,VWS V14.01,2013-01-22 05:53:00,
2013-01-22 00:58:00,19.4,16.4,29.78,SE,130,0.0,0.0,88,0.00,,,0.00,VWS V14.01,2013-01-22 05:58:00,
2013-01-22 01:03:00,19.3,16.3,29.78,SE,129,0.0,0.0,88,0.00,,,0.00,VWS V14.01,2013-01-22 06:03:00,
2013-01-22 01:08:00,19.3,16.3,29.79,SE,129,0.0,0.0,88,0.00,,,0.00,VWS V14.01,2013-01-22 06:08:00,
2013-01-22 01:13:00,19.2,16.5,29.80,SE,130,0.0,0.0,89,0.00,,,0.00,VWS V14.01,2013-01-22 06:13:00,
2013-01-22 01:18:00,19.1,16.4,29.80,SE,130,1.0,1.0,89,0.00,,,0.00,VWS V14.01,2013-01-22 06:18:00,
2013-01-22 01:23:00,19.0,16.3,29.80,SE,129,0.0,1.0,89,0.00,,,0.00,VWS V14.01,2013-01-22 06:23:00,
2013-01-22 01:28:00,19.0,16.6,29.80,NE,42,2.0,3.0,90,0.00,,,0.00,VWS V14.01,2013-01-22 06:28:00,
2013-01-22 01:33:00,19.1,16.7,29.80,NW,309,0.0,4.0,90,0.00,,,0.00,VWS V14.01,2013-01-22 06:33:00,
2013-01-22 01:38:00,19.2,17.0,29.80,NW,309,0.0,2.0,91,0.00,,,0.00,VWS V14.01,2013-01-22 06:38:00,
2013-01-22 01:43:00,19.3,17.1,29.80,NW,309,1.0,2.0,91,0.00,,,0.00,VWS V14.01,2013-01-22 06:43:00,
2013-01-22 01:48:00,19.4,17.2,29.80,NW,309,0.0,2.0,91,0.00,,,0.00,VWS V14.01,2013-01-22 06:48:00,
2013-01-22 01:53:00,19.4,17.2,29.80,NW,309,0.0,2.0,91,0.00,,,0.00,VWS V14.01,2013-01-22 06:53:00,
2013-01-22 01:58:00,19.5,17.0,29.80,NW,309,0.0,2.0,90,0.00,,,0.00,VWS V14.01,2013-01-22 06:58:00,
2013-01-22 02:03:00,19.4,17.0,29.80,NW,309,0.0,2.0,90,0.00,,,0.00,VWS V14.01,2013-01-22 07:03:00,
2013-01-22 02:08:00,19.5,17.0,29.80,NW,309,0.0,0.0,90,0.00,,,0.00,VWS V14.01,2013-01-22 07:08:00,
2013-01-22 02:13:00,19.4,17.0,29.80,NW,309,0.0,0.0,90,0.00,,,0.00,VWS V14.01,2013-01-22 07:13:00,
2013-01-22 02:18:00,19.5,17.0,29.80,NW,309,0.0,0.0,90,0.00,,,0.00,VWS V14.01,2013-01-22 07:18:00,
2013-01-22 02:23:00,19.5,17.0,29.80,NW,309,0.0,0.0,90,0.00,,,0.00,VWS V14.01,2013-01-22 07:23:00,
2013-01-22 02:28:00,19.4,16.7,29.79,NW,309,0.0,0.0,89,0.00,,,0.00,VWS V14.01,2013-01-22 07:28:00,
2013-01-22 02:33:00,19.4,16.7,29.79,NW,309,0.0,0.0,89,0.00,,,0.00,VWS V14.01,2013-01-22 07:33:00,
2013-01-22 02:38:00,19.3,16.6,29.79,NW,309,0.0,0.0,89,0.00,,,0.00,VWS V14.01,2013-01-22 07:38:00,
2013-01-22 02:43:00,19.2,16.5,29.79,NW,309,0.0,0.0,89,0.00,,,0.00,VWS V14.01,2013-01-22 07:43:00,
2013-01-22 02:48:00,19.0,16.0,29.79,NW,309,0.0,0.0,88,0.00,,,0.00,VWS V14.01,2013-01-22 07:48:00,
2013-01-22 02:53:00,19.0,16.0,29.79,NW,309,0.0,1.0,88,0.00,,,0.00,VWS V14.01,2013-01-22 07:53:00,
2013-01-22 02:58:00,18.9,15.9,29.79,NW,309,0.0,1.0,88,0.00,,,0.00,VWS V14.01,2013-01-22 07:58:00,
2013-01-22 03:03:00,18.8,15.8,29.79,NW,309,0.0,1.0,88,0.00,,,0.00,VWS V14.01,2013-01-22 08:03:00,
2013-01-22 03:08:00,18.7,16.0,29.79,NW,309,0.0,0.0,89,0.00,,,0.00,VWS V14.01,2013-01-22 08:08:00,
2013-01-22 03:13:00,18.6,15.9,29.79,NW,309,0.0,0.0,89,0.00,,,0.00,VWS V14.01,2013-01-22 08:13:00,
2013-01-22 03:18:00,18.6,15.9,29.79,NW,309,1.0,1.0,89,0.00,,,0.00,VWS V14.01,2013-01-22 08:18:00,
2013-01-22 03:23:00,18.6,16.2,29.79,NW,309,0.0,1.0,90,0.00,,,0.00,VWS V14.01,2013-01-22 08:23:00,
2013-01-22 03:28:00,18.7,16.3,29.79,NW,309,0.0,1.0,90,0.00,,,0.00,VWS V14.01,2013-01-22 08:28:00,
2013-01-22 03:33:00,18.7,16.3,29.79,NW,309,2.0,2.0,90,0.00,,,0.00,VWS V14.01,2013-01-22 08:33:00,
2013-01-22 03:38:00,18.7,16.3,29.79,WNW,299,2.0,2.0,90,0.00,,,0.00,VWS V14.01,2013-01-22 08:38:00,
2013-01-22 03:43:00,18.7,16.3,29.78,WNW,298,1.0,2.0,90,0.00,,,0.00,VWS V14.01,2013-01-22 08:43:00,
2013-01-22 03:48:00,18.7,16.3,29.78,WNW,298,2.0,3.0,90,0.00,,,0.00,VWS V14.01,2013-01-22 08:48:00,
2013-01-22 03:53:00,18.8,16.4,29.79,WNW,297,3.0,3.0,90,0.00,,,0.00,VWS V14.01,2013-01-22 08:53:00,
2013-01-22 03:58:00,18.8,16.4,29.79,West,266,2.0,5.0,90,0.00,,,0.00,VWS V14.01,2013-01-22 08:58:00,
2013-01-22 04:03:00,18.9,16.5,29.79,West,273,2.0,6.0,90,0.00,,,0.00,VWS V14.01,2013-01-22 09:03:00,
2013-01-22 04:08:00,19.0,16.8,29.79,West,266,1.0,4.0,91,0.00,,,0.00,VWS V14.01,2013-01-22 09:08:00,
2013-01-22 04:13:00,19.0,16.8,29.79,West,274,5.0,5.0,91,0.00,,,0.00,VWS V14.01,2013-01-22 09:13:00,
2013-01-22 04:18:00,19.1,16.7,29.79,West,259,5.0,5.0,90,0.00,,,0.00,VWS V14.01,2013-01-22 09:18:00,
2013-01-22 04:23:00,19.1,16.7,29.79,West,278,4.0,5.0,90,0.00,,,0.00,VWS V14.01,2013-01-22 09:23:00,
2013-01-22 04:28:00,19.2,16.8,29.79,WNW,290,3.0,5.0,90,0.00,,,0.00,VWS V14.01,2013-01-22 09:28:00,
2013-01-22 04:33:00,19.1,16.4,29.79,NNW,334,2.0,8.0,89,0.00,,,0.00,VWS V14.01,2013-01-22 09:33:00,
2013-01-22 04:38:00,19.1,16.4,29.79,WNW,292,3.0,6.0,89,0.00,,,0.00,VWS V14.01,2013-01-22 09:38:00,
2013-01-22 04:43:00,19.0,16.0,29.79,WNW,302,2.0,9.0,88,0.00,,,0.00,VWS V14.01,2013-01-22 09:43:00,
2013-01-22 04:48:00,18.8,15.8,29.79,WNW,298,6.0,9.0,88,0.00,,,0.00,VWS V14.01,2013-01-22 09:48:00,
2013-01-22 04:53:00,18.7,15.7,29.79,NW,307,6.0,9.0,88,0.00,,,0.00,VWS V14.01,2013-01-22 09:53:00,
2013-01-22 04:58:00,18.6,15.4,29.80,West,270,5.0,9.0,87,0.00,,,0.00,VWS V14.01,2013-01-22 09:58:00,
2013-01-22 05:03:00,18.4,15.2,29.80,West,265,5.0,9.0,87,0.00,,,0.00,VWS V14.01,2013-01-22 10:03:00,
2013-01-22 05:08:00,18.3,14.8,29.80,West,277,5.0,6.0,86,0.00,,,0.00,VWS V14.01,2013-01-22 10:08:00,
2013-01-22 05:13:00,18.2,14.7,29.80,West,268,5.0,8.0,86,0.00,,,0.00,VWS V14.01,2013-01-22 10:13:00,
2013-01-22 05:18:00,18.1,14.6,29.80,WNW,294,3.0,8.0,86,0.00,,,0.00,VWS V14.01,2013-01-22 10:18:00,
2013-01-22 05:23:00,17.9,14.4,29.81,WNW,298,3.0,9.0,86,0.00,,,0.00,VWS V14.01,2013-01-22 10:23:00,
2013-01-22 05:28:00,17.8,14.3,29.81,West,279,3.0,9.0,86,0.00,,,0.00,VWS V14.01,2013-01-22 10:28:00,
2013-01-22 05:33:00,17.7,14.2,29.81,West,281,5.0,11.0,86,0.00,,,0.00,VWS V14.01,2013-01-22 10:33:00,
2013-01-22 05:38:00,17.5,13.8,29.81,West,281,3.0,8.0,85,0.00,,,0.00,VWS V14.01,2013-01-22 10:38:00,
2013-01-22 05:43:00,17.3,13.6,29.82,West,279,4.0,11.0,85,0.00,,,0.00,VWS V14.01,2013-01-22 10:43:00,
2013-01-22 05:48:00,17.2,13.5,29.82,WNW,286,4.0,11.0,85,0.00,,,0.00,VWS V14.01,2013-01-22 10:48:00,
2013-01-22 05:53:00,17.0,13.3,29.82,WSW,249,5.0,11.0,85,0.00,,,0.00,VWS V14.01,2013-01-22 10:53:00,
2013-01-22 05:58:00,16.8,12.8,29.82,WSW,251,5.0,11.0,84,0.00,,,0.00,VWS V14.01,2013-01-22 10:58:00,
2013-01-22 06:03:00,16.7,12.7,29.83,West,266,3.0,11.0,84,0.00,,,0.00,VWS V14.01,2013-01-22 11:03:00,
2013-01-22 06:08:00,16.6,12.9,29.83,WNW,290,5.0,6.0,85,0.00,,,0.00,VWS V14.01,2013-01-22 11:08:00,
2013-01-22 06:13:00,16.4,12.4,29.83,West,281,5.0,10.0,84,0.00,,,0.00,VWS V14.01,2013-01-22 11:13:00,
2013-01-22 06:18:00,16.3,12.3,29.83,WSW,255,4.0,10.0,84,0.00,,,0.00,VWS V14.01,2013-01-22 11:18:00,
2013-01-22 06:23:00,16.1,12.1,29.83,NW,323,5.0,10.0,84,0.00,,,0.00,VWS V14.01,2013-01-22 11:23:00,
2013-01-22 06:28:00,15.9,11.9,29.83,WNW,287,5.0,11.0,84,0.00,,,0.00,VWS V14.01,2013-01-22 11:28:00,
2013-01-22 06:33:00,15.8,11.8,29.84,West,263,3.0,11.0,84,0.00,,,0.00,VWS V14.01,2013-01-22 11:33:00,
2013-01-22 06:38:00,15.7,11.5,29.84,West,278,8.0,12.0,83,0.00,,,0.00,VWS V14.01,2013-01-22 11:38:00,
2013-01-22 06:43:00,15.6,11.4,29.84,West,280,6.0,12.0,83,0.00,,,0.00,VWS V14.01,2013-01-22 11:43:00,
2013-01-22 06:48:00,15.5,11.3,29.84,West,275,10.0,13.0,83,0.00,,,0.00,VWS V14.01,2013-01-22 11:48:00,
2013-01-22 06:53:00,15.3,10.8,29.85,West,264,5.0,13.0,82,0.00,,,0.00,VWS V14.01,2013-01-22 11:53:00,
2013-01-22 06:58:00,15.2,10.7,29.84,WNW,288,7.0,13.0,82,0.00,,,0.00,VWS V14.01,2013-01-22 11:58:00,
2013-01-22 07:03:00,15.1,10.6,29.85,West,273,5.0,13.0,82,0.00,,,0.00,VWS V14.01,2013-01-22 12:03:00,
2013-01-22 07:08:00,15.0,10.5,29.85,West,279,7.0,8.0,82,0.00,,,0.00,VWS V14.01,2013-01-22 12:08:00,
2013-01-22 07:13:00,14.8,10.6,29.85,West,280,4.0,9.0,83,0.00,,,0.00,VWS V14.01,2013-01-22 12:13:00,
2013-01-22 07:18:00,14.6,10.4,29.85,WNW,292,4.0,12.0,83,0.00,,,0.00,VWS V14.01,2013-01-22 12:18:00,
2013-01-22 07:23:00,14.5,10.3,29.85,West,260,8.0,12.0,83,0.00,,,0.00,VWS V14.01,2013-01-22 12:23:00,
2013-01-22 07:28:00,14.4,10.2,29.85,WSW,257,3.0,12.0,83,0.00,,,0.00,VWS V14.01,2013-01-22 12:28:00,
2013-01-22 07:33:00,14.4,10.2,29.85,WSW,254,5.0,17.0,83,0.00,,,0.00,VWS V14.01,2013-01-22 12:33:00,
2013-01-22 07:38:00,14.4,10.2,29.86,NW,305,3.0,11.0,83,0.00,,,0.00,VWS V14.01,2013-01-22 12:38:00,
2013-01-22 07:43:00,14.4,10.2,29.86,North,355,4.0,11.0,83,0.00,,,0.00,VWS V14.01,2013-01-22 12:43:00,
2013-01-22 07:48:00,14.4,9.9,29.86,SW,235,7.0,14.0,82,0.00,,,0.00,VWS V14.01,2013-01-22 12:48:00,
2013-01-22 07:53:00,14.5,10.0,29.86,West,265,4.0,14.0,82,0.00,,,0.00,VWS V14.01,2013-01-22 12:53:00,
2013-01-22 07:58:00,14.5,10.0,29.86,WNW,295,4.0,14.0,82,0.00,,,0.00,VWS V14.01,2013-01-22 12:58:00,
2013-01-22 08:03:00,14.6,9.8,29.86,WSW,242,8.0,14.0,81,0.00,,,0.00,VWS V14.01,2013-01-22 13:03:00,
2013-01-22 08:08:00,14.8,10.0,29.87,West,280,10.0,14.0,81,0.00,,,0.00,VWS V14.01,2013-01-22 13:08:00,
2013-01-22 08:13:00,15.1,10.1,29.87,WNW,300,10.0,15.0,80,0.00,,,0.00,VWS V14.01,2013-01-22 13:13:00,
2013-01-22 08:18:00,15.3,10.0,29.87,West,272,8.0,16.0,79,0.00,,,0.00,VWS V14.01,2013-01-22 13:18:00,
2013-01-22 08:23:00,15.6,10.3,29.87,West,280,5.0,16.0,79,0.00,,,0.00,VWS V14.01,2013-01-22 13:23:00,
2013-01-22 08:28:00,15.9,10.0,29.87,WNW,284,4.0,16.0,77,0.00,,,0.00,VWS V14.01,2013-01-22 13:28:00,
2013-01-22 08:33:00,16.1,9.9,29.88,West,280,2.0,16.0,76,0.00,,,0.00,VWS V14.01,2013-01-22 13:33:00,
2013-01-22 08:38:00,16.2,10.3,29.88,West,271,7.0,17.0,77,0.00,,,0.00,VWS V14.01,2013-01-22 13:38:00,
2013-01-22 08:43:00,16.7,9.9,29.88,West,277,4.0,17.0,74,0.00,,,0.00,VWS V14.01,2013-01-22 13:43:00,
2013-01-22 08:48:00,16.8,9.4,29.88,WNW,298,10.0,17.0,72,0.00,,,0.00,VWS V14.01,2013-01-22 13:48:00,
2013-01-22 08:53:00,17.1,8.7,29.88,WNW,284,7.0,17.0,69,0.00,,,0.00,VWS V14.01,2013-01-22 13:53:00,
2013-01-22 08:58:00,17.2,8.5,29.88,WSW,254,10.0,17.0,68,0.00,,,0.00,VWS V14.01,2013-01-22 13:58:00,
2013-01-22 09:03:00,16.8,7.1,29.89,NNW,327,7.0,21.0,65,0.00,,,0.00,VWS V14.01,2013-01-22 14:03:00,
2013-01-22 09:08:00,17.1,7.4,29.89,West,267,14.0,18.0,65,0.00,,,0.00,VWS V14.01,2013-01-22 14:08:00,
2013-01-22 09:13:00,17.0,6.6,29.89,WNW,286,10.0,18.0,63,0.00,,,0.00,VWS V14.01,2013-01-22 14:13:00,
2013-01-22 09:18:00,17.0,6.6,29.90,West,279,3.0,18.0,63,0.00,,,0.00,VWS V14.01,2013-01-22 14:18:00,
2013-01-22 09:23:00,17.1,6.3,29.90,West,267,5.0,18.0,62,0.00,,,0.00,VWS V14.01,2013-01-22 14:23:00,
2013-01-22 09:28:00,17.1,6.3,29.90,West,267,7.0,18.0,62,0.00,,,0.00,VWS V14.01,2013-01-22 14:28:00,
2013-01-22 09:33:00,17.2,6.4,29.90,WNW,299,4.0,18.0,62,0.00,,,0.00,VWS V14.01,2013-01-22 14:33:00,
2013-01-22 09:38:00,17.5,6.7,29.90,West,275,8.0,11.0,62,0.00,,,0.00,VWS V14.01,2013-01-22 14:38:00,
2013-01-22 09:43:00,17.5,6.0,29.90,NW,306,6.0,15.0,60,0.00,,,0.00,VWS V14.01,2013-01-22 14:43:00,
2013-01-22 09:48:00,17.5,5.6,29.91,WSW,242,8.0,17.0,59,0.00,,,0.00,VWS V14.01,2013-01-22 14:48:00,
2013-01-22 09:53:00,17.3,4.7,29.91,West,259,8.0,17.0,57,0.00,,,0.00,VWS V14.01,2013-01-22 14:53:00,
2013-01-22 09:58:00,17.2,3.8,29.91,WNW,284,7.0,17.0,55,0.00,,,0.00,VWS V14.01,2013-01-22 14:58:00,
2013-01-22 10:03:00,17.2,3.4,29.91,West,270,11.0,17.0,54,0.00,,,0.00,VWS V14.01,2013-01-22 15:03:00,
2013-01-22 10:08:00,17.4,3.2,29.91,West,264,12.0,14.0,53,0.00,,,0.00,VWS V14.01,2013-01-22 15:08:00,
2013-01-22 10:13:00,17.5,2.9,29.92,WNW,292,9.0,20.0,52,0.00,,,0.00,VWS V14.01,2013-01-22 15:13:00,
2013-01-22 10:18:00,17.3,2.3,29.92,West,280,4.0,20.0,51,0.00,,,0.00,VWS V14.01,2013-01-22 15:18:00,
2013-01-22 10:23:00,17.2,2.2,29.92,WNW,297,8.0,21.0,51,0.00,,,0.00,VWS V14.01,2013-01-22 15:23:00,
2013-01-22 10:28:00,17.3,2.3,29.92,WNW,284,11.0,21.0,51,0.00,,,0.00,VWS V14.01,2013-01-22 15:28:00,
2013-01-22 10:33:00,17.5,2.0,29.92,WNW,298,3.0,21.0,50,0.00,,,0.00,VWS V14.01,2013-01-22 15:33:00,
2013-01-22 10:38:00,17.5,1.6,29.92,WSW,256,12.0,23.0,49,0.00,,,0.00,VWS V14.01,2013-01-22 15:38:00,
2013-01-22 10:43:00,17.6,2.1,29.91,West,266,5.0,23.0,50,0.00,,,0.00,VWS V14.01,2013-01-22 15:43:00,
2013-01-22 10:48:00,17.2,0.9,29.92,West,263,12.0,23.0,48,0.00,,,0.00,VWS V14.01,2013-01-22 15:48:00,
2013-01-22 10:53:00,17.3,1.0,29.92,SW,229,7.0,23.0,48,0.00,,,0.00,VWS V14.01,2013-01-22 15:53:00,
2013-01-22 10:58:00,17.7,1.8,29.92,WNW,294,11.0,23.0,49,0.00,,,0.00,VWS V14.01,2013-01-22 15:58:00,
2013-01-22 11:03:00,17.5,1.2,29.91,WNW,295,6.0,23.0,48,0.00,,,0.00,VWS V14.01,2013-01-22 16:03:00,
2013-01-22 11:08:00,17.6,0.8,29.91,WNW,285,5.0,17.0,47,0.00,,,0.00,VWS V14.01,2013-01-22 16:08:00,
2013-01-22 11:13:00,17.5,1.2,29.91,NNW,334,5.0,17.0,48,0.00,,,0.00,VWS V14.01,2013-01-22 16:13:00,
2013-01-22 11:18:00,17.8,0.5,29.91,NW,308,14.0,17.0,46,0.00,,,0.00,VWS V14.01,2013-01-22 16:18:00,
2013-01-22 11:23:00,18.1,0.8,29.91,WNW,284,5.0,17.0,46,0.00,,,0.00,VWS V14.01,2013-01-22 16:23:00,
2013-01-22 11:28:00,18.0,0.2,29.91,WNW,286,6.0,17.0,45,0.00,,,0.00,VWS V14.01,2013-01-22 16:28:00,
2013-01-22 11:33:00,18.0,0.2,29.91,NW,323,11.0,20.0,45,0.00,,,0.00,VWS V14.01,2013-01-22 16:33:00,
2013-01-22 11:38:00,18.0,0.7,29.91,WSW,246,7.0,12.0,46,0.00,,,0.00,VWS V14.01,2013-01-22 16:38:00,
2013-01-22 11:43:00,18.0,0.2,29.91,NW,315,6.0,14.0,45,0.00,,,0.00,VWS V14.01,2013-01-22 16:43:00,
2013-01-22 11:48:00,18.1,0.3,29.90,WSW,250,3.0,14.0,45,0.00,,,0.00,VWS V14.01,2013-01-22 16:48:00,
2013-01-22 11:53:00,18.4,0.6,29.90,NNW,333,12.0,14.0,45,0.00,,,0.00,VWS V14.01,2013-01-22 16:53:00,
2013-01-22 11:58:00,18.0,-0.2,29.90,West,277,6.0,16.0,44,0.00,,,0.00,VWS V14.01,2013-01-22 16:58:00,
2013-01-22 12:03:00,18.2,0.4,29.90,WNW,292,10.0,16.0,45,0.00,,,0.00,VWS V14.01,2013-01-22 17:03:00,
2013-01-22 12:08:00,17.8,0.1,29.90,WSW,256,8.0,12.0,45,0.00,,,0.00,VWS V14.01,2013-01-22 17:08:00,
2013-01-22 12:13:00,18.0,-0.2,29.89,WNW,287,8.0,12.0,44,0.00,,,0.00,VWS V14.01,2013-01-22 17:13:00,
2013-01-22 12:18:00,18.0,-0.7,29.89,West,277,5.0,15.0,43,0.00,,,0.00,VWS V14.01,2013-01-22 17:18:00,
2013-01-22 12:23:00,18.2,-0.5,29.90,West,265,5.0,15.0,43,0.00,,,0.00,VWS V14.01,2013-01-22 17:23:00,
2013-01-22 12:28:00,18.3,-0.9,29.89,WNW,286,10.0,17.0,42,0.00,,,0.00,VWS V14.01,2013-01-22 17:28:00,
2013-01-22 12:33:00,17.7,-1.5,29.89,West,279,6.0,17.0,42,0.00,,,0.00,VWS V14.01,2013-01-22 17:33:00,
2013-01-22 12:38:00,17.2,-1.4,29.89,WNW,283,6.0,17.0,43,0.00,,,0.00,VWS V14.01,2013-01-22 17:38:00,
2013-01-22 12:43:00,17.0,-1.6,29.90,WNW,288,9.0,18.0,43,0.00,,,0.00,VWS V14.01,2013-01-22 17:43:00,
2013-01-22 12:48:00,17.1,-2.0,29.90,West,278,9.0,18.0,42,0.00,,,0.00,VWS V14.01,2013-01-22 17:48:00,
2013-01-22 12:53:00,17.7,-1.0,29.89,West,261,2.0,18.0,43,0.00,,,0.00,VWS V14.01,2013-01-22 17:53:00,
2013-01-22 12:58:00,18.4,-1.4,29.89,NW,313,12.0,18.0,41,0.00,,,0.00,VWS V14.01,2013-01-22 17:58:00,
2013-01-22 13:03:00,18.5,-1.3,29.89,WNW,286,5.0,18.0,41,0.00,,,0.00,VWS V14.01,2013-01-22 18:03:00,
2013-01-22 13:08:00,19.0,0.2,29.90,NW,311,4.0,15.0,43,0.00,,,0.00,VWS V14.01,2013-01-22 18:08:00,
2013-01-22 13:13:00,18.8,-1.5,29.89,NW,317,10.0,21.0,40,0.00,,,0.00,VWS V14.01,2013-01-22 18:13:00,
2013-01-22 13:18:00,18.9,-0.9,29.89,WNW,290,3.0,21.0,41,0.00,,,0.00,VWS V14.01,2013-01-22 18:18:00,
2013-01-22 13:23:00,19.3,-1.1,29.90,WNW,284,5.0,21.0,40,0.00,,,0.00,VWS V14.01,2013-01-22 18:23:00,
2013-01-22 13:28:00,19.2,-1.7,29.90,WSW,246,5.0,21.0,39,0.00,,,0.00,VWS V14.01,2013-01-22 18:28:00,
2013-01-22 13:33:00,18.9,-2.0,29.89,West,280,3.0,22.0,39,0.00,,,0.00,VWS V14.01,2013-01-22 18:33:00,
2013-01-22 13:38:00,18.3,-2.0,29.90,WNW,286,11.0,15.0,40,0.00,,,0.00,VWS V14.01,2013-01-22 18:38:00,
2013-01-22 13:43:00,18.3,-1.5,29.90,NW,323,7.0,15.0,41,0.00,,,0.00,VWS V14.01,2013-01-22 18:43:00,
2013-01-22 13:48:00,18.8,-2.0,29.90,WNW,293,4.0,15.0,39,0.00,,,0.00,VWS V14.01,2013-01-22 18:48:00,
2013-01-22 13:53:00,19.1,-0.7,29.90,WNW,283,8.0,15.0,41,0.00,,,0.00,VWS V14.01,2013-01-22 18:53:00,
2013-01-22 13:58:00,19.1,-1.8,29.90,West,274,9.0,17.0,39,0.00,,,0.00,VWS V14.01,2013-01-22 18:58:00,
2013-01-22 14:03:00,19.1,-1.8,29.91,NW,315,5.0,18.0,39,0.00,,,0.00,VWS V14.01,2013-01-22 19:03:00,
2013-01-22 14:08:00,19.0,-2.4,29.91,WNW,294,4.0,11.0,38,0.00,,,0.00,VWS V14.01,2013-01-22 19:08:00,
2013-01-22 14:13:00,19.1,-2.3,29.91,West,279,8.0,16.0,38,0.00,,,0.00,VWS V14.01,2013-01-22 19:13:00,
2013-01-22 14:18:00,19.1,-1.8,29.91,NW,318,9.0,16.0,39,0.00,,,0.00,VWS V14.01,2013-01-22 19:18:00,
2013-01-22 14:23:00,18.6,-2.8,29.92,WNW,302,10.0,16.0,38,0.00,,,0.00,VWS V14.01,2013-01-22 19:23:00,
2013-01-22 14:28:00,18.4,-3.0,29.92,WNW,283,7.0,16.0,38,0.00,,,0.00,VWS V14.01,2013-01-22 19:28:00,
2013-01-22 14:33:00,18.4,-2.4,29.92,NNW,335,13.0,19.0,39,0.00,,,0.00,VWS V14.01,2013-01-22 19:33:00,
2013-01-22 14:38:00,18.2,-3.1,29.92,WNW,283,7.0,12.0,38,0.00,,,0.00,VWS V14.01,2013-01-22 19:38:00,
2013-01-22 14:43:00,17.9,-2.9,29.92,WSW,250,2.0,12.0,39,0.00,,,0.00,VWS V14.01,2013-01-22 19:43:00,
2013-01-22 14:48:00,18.2,-2.6,29.92,West,277,12.0,13.0,39,0.00,,,0.00,VWS V14.01,2013-01-22 19:48:00,
2013-01-22 14:53:00,18.4,-2.4,29.93,NNW,340,5.0,13.0,39,0.00,,,0.00,VWS V14.01,2013-01-22 19:53:00,
2013-01-22 14:58:00,18.5,-1.8,29.93,NW,311,5.0,13.0,40,0.00,,,0.00,VWS V14.01,2013-01-22 19:58:00,
2013-01-22 15:03:00,18.5,-1.8,29.93,West,281,14.0,14.0,40,0.00,,,0.00,VWS V14.01,2013-01-22 20:03:00,
2013-01-22 15:08:00,18.2,-2.6,29.93,WSW,250,5.0,10.0,39,0.00,,,0.00,VWS V14.01,2013-01-22 20:08:00,
2013-01-22 15:13:00,18.0,-2.8,29.93,NNW,328,6.0,10.0,39,0.00,,,0.00,VWS V14.01,2013-01-22 20:13:00,
2013-01-22 15:18:00,17.7,-3.0,29.94,NW,304,5.0,14.0,39,0.00,,,0.00,VWS V14.01,2013-01-22 20:18:00,
2013-01-22 15:23:00,17.3,-2.9,29.94,WNW,286,8.0,14.0,40,0.00,,,0.00,VWS V14.01,2013-01-22 20:23:00,
2013-01-22 15:28:00,17.0,-3.1,29.94,NW,306,7.0,14.0,40,0.00,,,0.00,VWS V14.01,2013-01-22 20:28:00,
2013-01-22 15:33:00,16.9,-3.2,29.94,West,280,4.0,14.0,40,0.00,,,0.00,VWS V14.01,2013-01-22 20:33:00,
2013-01-22 15:38:00,16.7,-3.4,29.94,NW,324,8.0,10.0,40,0.00,,,0.00,VWS V14.01,2013-01-22 20:38:00,
2013-01-22 15:43:00,16.7,-2.4,29.95,WNW,282,7.0,10.0,42,0.00,,,0.00,VWS V14.01,2013-01-22 20:43:00,
2013-01-22 15:48:00,16.7,-2.9,29.95,North,355,6.0,11.0,41,0.00,,,0.00,VWS V14.01,2013-01-22 20:48:00,
2013-01-22 15:53:00,16.8,-2.3,29.95,WNW,298,6.0,12.0,42,0.00,,,0.00,VWS V14.01,2013-01-22 20:53:00,
2013-01-22 15:58:00,16.8,-2.3,29.96,West,277,8.0,12.0,42,0.00,,,0.00,VWS V14.01,2013-01-22 20:58:00,
2013-01-22 16:03:00,16.7,-2.4,29.96,NW,321,6.0,12.0,42,0.00,,,0.00,VWS V14.01,2013-01-22 21:03:00,
2013-01-22 16:08:00,16.5,-2.6,29.96,West,274,6.0,9.0,42,0.00,,,0.00,VWS V14.01,2013-01-22 21:08:00,
2013-01-22 16:13:00,16.3,-2.8,29.96,WNW,297,10.0,13.0,42,0.00,,,0.00,VWS V14.01,2013-01-22 21:13:00,
2013-01-22 16:18:00,16.0,-3.0,29.97,WNW,288,3.0,14.0,42,0.00,,,0.00,VWS V14.01,2013-01-22 21:18:00,
2013-01-22 16:23:00,15.7,-3.3,29.97,NW,323,8.0,14.0,42,0.00,,,0.00,VWS V14.01,2013-01-22 21:23:00,
2013-01-22 16:28:00,15.6,-2.9,29.97,West,281,6.0,14.0,43,0.00,,,0.00,VWS V14.01,2013-01-22 21:28:00,
2013-01-22 16:31:00,15.5,-3.0,29.97,West,259,3.0,14.0,43,0.00,,,0.00,VWS V14.01,2013-01-22 21:31:00,
2013-01-22 16:36:00,15.3,-2.7,29.97,WNW,285,6.0,9.0,44,0.00,,,0.00,VWS V14.01,2013-01-22 21:36:00,
2013-01-22 16:41:00,15.3,-2.7,29.97,West,273,2.0,14.0,44,0.00,,,0.00,VWS V14.01,2013-01-22 21:41:00,
2013-01-22 16:46:00,15.2,-2.8,29.98,West,273,5.0,14.0,44,0.00,,,0.00,VWS V14.01,2013-01-22 21:46:00,
2013-01-22 16:51:00,15.2,-3.3,29.98,NW,308,12.0,14.0,43,0.00,,,0.00,VWS V14.01,2013-01-22 21:51:00,
2013-01-22 16:56:00,15.2,-3.3,29.98,West,281,4.0,14.0,43,0.00,,,0.00,VWS V14.01,2013-01-22 21:56:00,
2013-01-22 17:01:00,15.1,-2.9,29.99,WNW,301,5.0,14.0,44,0.00,,,0.00,VWS V14.01,2013-01-22 22:01:00,
2013-01-22 17:07:00,14.8,-2.7,29.99,West,268,7.0,10.0,45,0.00,,,0.00,VWS V14.01,2013-01-22 22:07:00,
2013-01-22 17:12:00,14.8,-2.7,30.00,WNW,282,4.0,10.0,45,0.00,,,0.00,VWS V14.01,2013-01-22 22:12:00,
2013-01-22 17:17:00,14.7,-2.8,30.00,NW,321,4.0,10.0,45,0.00,,,0.00,VWS V14.01,2013-01-22 22:17:00,
2013-01-22 17:22:00,14.6,-2.4,30.00,WNW,294,5.0,10.0,46,0.00,,,0.00,VWS V14.01,2013-01-22 22:22:00,
2013-01-22 17:27:00,14.5,-2.5,30.00,NW,309,5.0,10.0,46,0.00,,,0.00,VWS V14.01,2013-01-22 22:27:00,
2013-01-22 17:32:00,14.4,-2.6,30.01,NW,319,0.0,10.0,46,0.00,,,0.00,VWS V14.01,2013-01-22 22:32:00,
2013-01-22 17:37:00,14.2,-2.8,30.01,West,268,4.0,5.0,46,0.00,,,0.00,VWS V14.01,2013-01-22 22:37:00,
2013-01-22 17:42:00,14.1,-2.9,30.01,West,275,3.0,5.0,46,0.00,,,0.00,VWS V14.01,2013-01-22 22:42:00,
2013-01-22 17:47:00,14.1,-2.9,30.02,West,281,5.0,9.0,46,0.00,,,0.00,VWS V14.01,2013-01-22 22:47:00,
2013-01-22 17:52:00,14.0,-3.0,30.02,WSW,242,6.0,12.0,46,0.00,,,0.00,VWS V14.01,2013-01-22 22:52:00,
2013-01-22 17:57:00,13.9,-3.0,30.02,WNW,287,5.0,12.0,46,0.00,,,0.00,VWS V14.01,2013-01-22 22:57:00,
2013-01-22 18:02:00,13.8,-3.1,30.03,WNW,284,8.0,12.0,46,0.00,,,0.00,VWS V14.01,2013-01-22 23:02:00,
2013-01-22 18:07:00,13.6,-3.3,30.03,West,279,7.0,7.0,46,0.00,,,0.00,VWS V14.01,2013-01-22 23:07:00,
2013-01-22 18:12:00,13.6,-3.3,30.03,West,281,5.0,10.0,46,0.00,,,0.00,VWS V14.01,2013-01-22 23:12:00,
2013-01-22 18:17:00,13.4,-3.5,30.03,West,277,10.0,12.0,46,0.00,,,0.00,VWS V14.01,2013-01-22 23:17:00,
2013-01-22 18:22:00,13.3,-3.2,30.04,West,280,3.0,12.0,47,0.00,,,0.00,VWS V14.01,2013-01-22 23:22:00,
2013-01-22 18:27:00,13.2,-3.2,30.04,WNW,285,4.0,12.0,47,0.00,,,0.00,VWS V14.01,2013-01-22 23:27:00,
2013-01-22 18:32:00,13.0,-3.0,30.04,West,278,5.0,12.0,48,0.00,,,0.00,VWS V14.01,2013-01-22 23:32:00,
2013-01-22 18:37:00,12.9,-3.5,30.04,West,281,9.0,9.0,47,0.00,,,0.00,VWS V14.01,2013-01-22 23:37:00,
2013-01-22 18:42:00,12.8,-3.2,30.05,WNW,296,4.0,9.0,48,0.00,,,0.00,VWS V14.01,2013-01-22 23:42:00,
2013-01-22 18:47:00,12.6,-2.9,30.05,NW,306,3.0,9.0,49,0.00,,,0.00,VWS V14.01,2013-01-22 23:47:00,
2013-01-22 18:52:00,12.7,-2.8,30.05,WNW,283,6.0,9.0,49,0.00,,,0.00,VWS V14.01,2013-01-22 23:52:00,
2013-01-22 18:57:00,12.5,-2.6,30.05,West,271,6.0,9.0,50,0.00,,,0.00,VWS V14.01,2013-01-22 23:57:00,
2013-01-22 19:02:00,12.4,-2.3,30.05,WNW,284,5.0,9.0,51,0.00,,,0.00,VWS V14.01,2013-01-23 00:02:00,
2013-01-22 19:07:00,12.4,-2.7,30.05,WNW,295,4.0,5.0,50,0.00,,,0.00,VWS V14.01,2013-01-23 00:07:00,
2013-01-22 19:12:00,12.2,-2.5,30.05,WNW,288,2.0,6.0,51,0.00,,,0.00,VWS V14.01,2013-01-23 00:12:00,
2013-01-22 19:17:00,12.2,-2.5,30.05,WSW,255,3.0,6.0,51,0.00,,,0.00,VWS V14.01,2013-01-23 00:17:00,
2013-01-22 19:22:00,12.0,-2.7,30.05,WSW,250,5.0,6.0,51,0.00,,,0.00,VWS V14.01,2013-01-23 00:22:00,
2013-01-22 19:27:00,12.1,-2.1,30.05,NW,307,1.0,8.0,52,0.00,,,0.00,VWS V14.01,2013-01-23 00:27:00,
2013-01-22 19:32:00,12.0,-2.2,30.05,West,262,2.0,8.0,52,0.00,,,0.00,VWS V14.01,2013-01-23 00:32:00,
2013-01-22 19:37:00,12.0,-2.7,30.05,NNW,332,3.0,7.0,51,0.00,,,0.00,VWS V14.01,2013-01-23 00:37:00,
2013-01-22 19:42:00,11.9,-2.7,30.05,WNW,296,3.0,8.0,51,0.00,,,0.00,VWS V14.01,2013-01-23 00:42:00,
2013-01-22 19:47:00,11.9,-2.7,30.05,West,273,3.0,8.0,51,0.00,,,0.00,VWS V14.01,2013-01-23 00:47:00,
2013-01-22 19:52:00,11.8,-2.8,30.06,West,272,4.0,9.0,51,0.00,,,0.00,VWS V14.01,2013-01-23 00:52:00,
2013-01-22 19:57:00,11.7,-2.5,30.06,West,281,2.0,9.0,52,0.00,,,0.00,VWS V14.01,2013-01-23 00:57:00,
2013-01-22 20:02:00,11.6,-2.6,30.06,WNW,282,5.0,9.0,52,0.00,,,0.00,VWS V14.01,2013-01-23 01:02:00,
2013-01-22 20:07:00,11.4,-2.4,30.06,WNW,298,4.0,7.0,53,0.00,,,0.00,VWS V14.01,2013-01-23 01:07:00,
2013-01-22 20:12:00,11.6,-2.2,30.06,NW,323,7.0,12.0,53,0.00,,,0.00,VWS V14.01,2013-01-23 01:12:00,
2013-01-22 20:17:00,11.7,-1.7,30.07,WSW,256,3.0,12.0,54,0.00,,,0.00,VWS V14.01,2013-01-23 01:17:00,
2013-01-22 20:22:00,11.5,-1.9,30.07,NW,310,3.0,12.0,54,0.00,,,0.00,VWS V14.01,2013-01-23 01:22:00,
2013-01-22 20:27:00,11.3,-1.7,30.07,WNW,288,6.0,12.0,55,0.00,,,0.00,VWS V14.01,2013-01-23 01:27:00,
2013-01-22 20:32:00,11.3,-1.7,30.07,WSW,251,2.0,12.0,55,0.00,,,0.00,VWS V14.01,2013-01-23 01:32:00,
2013-01-22 20:37:00,11.1,-1.5,30.07,NW,315,2.0,6.0,56,0.00,,,0.00,VWS V14.01,2013-01-23 01:37:00,
2013-01-22 20:42:00,11.0,-1.6,30.07,West,281,1.0,6.0,56,0.00,,,0.00,VWS V14.01,2013-01-23 01:42:00,
2013-01-22 20:47:00,11.0,-1.2,30.07,WNW,292,3.0,7.0,57,0.00,,,0.00,VWS V14.01,2013-01-23 01:47:00,
2013-01-22 20:52:00,10.9,-1.3,30.07,West,263,3.0,7.0,57,0.00,,,0.00,VWS V14.01,2013-01-23 01:52:00,
2013-01-22 20:57:00,10.7,-1.2,30.07,West,270,3.0,7.0,58,0.00,,,0.00,VWS V14.01,2013-01-23 01:57:00,
2013-01-22 21:03:00,10.5,-1.3,30.07,West,273,2.0,7.0,58,0.00,,,0.00,VWS V14.01,2013-01-23 02:03:00,
2013-01-22 21:08:00,10.4,-1.1,30.07,West,265,3.0,5.0,59,0.00,,,0.00,VWS V14.01,2013-01-23 02:08:00,
2013-01-22 21:13:00,10.4,-1.1,30.07,WNW,284,4.0,6.0,59,0.00,,,0.00,VWS V14.01,2013-01-23 02:13:00,
2013-01-22 21:18:00,10.3,-0.8,30.07,West,269,1.0,6.0,60,0.00,,,0.00,VWS V14.01,2013-01-23 02:18:00,
2013-01-22 21:23:00,10.3,-0.8,30.07,NW,304,3.0,6.0,60,0.00,,,0.00,VWS V14.01,2013-01-23 02:23:00,
2013-01-22 21:28:00,10.3,-0.8,30.08,West,281,2.0,6.0,60,0.00,,,0.00,VWS V14.01,2013-01-23 02:28:00,
2013-01-22 21:33:00,10.3,-0.8,30.08,WSW,256,1.0,7.0,60,0.00,,,0.00,VWS V14.01,2013-01-23 02:33:00,
2013-01-22 21:38:00,10.1,-1.0,30.08,WNW,288,4.0,4.0,60,0.00,,,0.00,VWS V14.01,2013-01-23 02:38:00,
2013-01-22 21:43:00,10.0,-1.1,30.08,West,270,3.0,6.0,60,0.00,,,0.00,VWS V14.01,2013-01-23 02:43:00,
2013-01-22 21:48:00,9.9,-0.9,30.08,West,270,2.0,6.0,61,0.00,,,0.00,VWS V14.01,2013-01-23 02:48:00,
2013-01-22 21:53:00,9.7,-1.0,30.08,West,270,2.0,6.0,61,0.00,,,0.00,VWS V14.01,2013-01-23 02:53:00,
2013-01-22 21:58:00,9.6,-1.1,30.08,West,270,2.0,6.0,61,0.00,,,0.00,VWS V14.01,2013-01-23 02:58:00,
2013-01-22 22:03:00,9.4,-1.3,30.08,West,270,2.0,6.0,61,0.00,,,0.00,VWS V14.01,2013-01-23 03:03:00,
2013-01-22 22:08:00,9.3,-1.4,30.09,West,270,2.0,3.0,61,0.00,,,0.00,VWS V14.01,2013-01-23 03:08:00,
2013-01-22 22:13:00,9.2,-1.5,30.09,WNW,289,3.0,4.0,61,0.00,,,0.00,VWS V14.01,2013-01-23 03:13:00,
2013-01-22 22:18:00,9.1,-1.3,30.09,WSW,246,3.0,5.0,62,0.00,,,0.00,VWS V14.01,2013-01-23 03:18:00,
2013-01-22 22:23:00,9.0,-1.4,30.09,WSW,248,2.0,5.0,62,0.00,,,0.00,VWS V14.01,2013-01-23 03:23:00,
2013-01-22 22:28:00,8.9,-1.5,30.09,WSW,248,2.0,5.0,62,0.00,,,0.00,VWS V14.01,2013-01-23 03:28:00,
2013-01-22 22:33:00,8.9,-1.1,30.09,WSW,246,1.0,6.0,63,0.00,,,0.00,VWS V14.01,2013-01-23 03:33:00,
2013-01-22 22:38:00,8.8,-1.2,30.09,West,265,3.0,5.0,63,0.00,,,0.00,VWS V14.01,2013-01-23 03:38:00,
2013-01-22 22:43:00,8.7,-1.0,30.09,West,271,3.0,9.0,64,0.00,,,0.00,VWS V14.01,2013-01-23 03:43:00,
2013-01-22 22:48:00,8.7,-0.6,30.10,WSW,257,3.0,9.0,65,0.00,,,0.00,VWS V14.01,2013-01-23 03:48:00,
2013-01-22 22:53:00,8.7,-0.6,30.10,NW,314,3.0,9.0,65,0.00,,,0.00,VWS V14.01,2013-01-23 03:53:00,
2013-01-22 22:58:00,8.6,-0.4,30.10,West,271,2.0,9.0,66,0.00,,,0.00,VWS V14.01,2013-01-23 03:58:00,
2013-01-22 23:03:00,8.6,-0.1,30.10,WNW,290,2.0,9.0,67,0.00,,,0.00,VWS V14.01,2013-01-23 04:03:00,
2013-01-22 23:08:00,8.5,0.1,30.10,West,267,2.0,4.0,68,0.00,,,0.00,VWS V14.01,2013-01-23 04:08:00,
2013-01-22 23:13:00,8.4,0.0,30.10,West,278,3.0,5.0,68,0.00,,,0.00,VWS V14.01,2013-01-23 04:13:00,
2013-01-22 23:18:00,8.3,0.2,30.10,SW,234,4.0,8.0,69,0.00,,,0.00,VWS V14.01,2013-01-23 04:18:00,
2013-01-22 23:23:00,8.3,0.2,30.10,West,265,10.0,10.0,69,0.00,,,0.00,VWS V14.01,2013-01-23 04:23:00,
2013-01-22 23:28:00,8.3,0.2,30.10,SW,235,4.0,10.0,69,0.00,,,0.00,VWS V14.01,2013-01-23 04:28:00,
2013-01-22 23:33:00,8.3,0.2,30.10,WNW,292,3.0,10.0,69,0.00,,,0.00,VWS V14.01,2013-01-23 04:33:00,
2013-01-22 23:38:00,8.3,0.6,30.10,West,273,3.0,6.0,70,0.00,,,0.00,VWS V14.01,2013-01-23 04:38:00,
2013-01-22 23:43:00,8.3,0.6,30.10,West,278,6.0,12.0,70,0.00,,,0.00,VWS V14.01,2013-01-23 04:43:00,
2013-01-22 23:48:00,8.3,0.2,30.09,West,275,7.0,12.0,69,0.00,,,0.00,VWS V14.01,2013-01-23 04:48:00,
2013-01-22 23:53:00,8.4,0.3,30.09,West,271,5.0,12.0,69,0.00,,,0.00,VWS V14.01,2013-01-23 04:53:00,
2013-01-22 23:58:00,8.4,0.3,30.09,West,265,7.0,12.0,69,0.00,,,0.00,VWS V14.01,2013-01-23 04:58:00,